Terminal Aerodrome Forecast
Issued by NWS

Home | Current Version | Previous Version | Text Only | Print | Product List | Glossary On
Versions: 1 2 3 4 5 6 7 8 9 10 11 12 13 14 15 16 17 18 19 20 21 22 23 24 25 26 27 28 29 30 31 32
000
FTUS41 KCTP 281337 AAA
TAFUNV
TAF AMD
KUNV 281337Z 2814/2912 03006KT 3SM BR SCT005 BKN015
     FM281500 04005KT 6SM BR OVC015
     FM281600 06005KT P6SM OVC030
     FM282000 08006KT 4SM -RA BR OVC035
     FM290600 02008KT P6SM OVC050=

USA.gov is the U.S. government's official web portal to all federal, state and local government web resources and services.